Gotham, United Kingdom
Current Conditions -  °F | °C
As of 12:50 PM on Wednesday 26 Nov 2014 (Local Time) from EGNX Reporting Station
Light Rain Light Rain  
Wind Chill: 41°   Ceiling: 200
Heat Index: 45°   Visibility: 0.81mi
Dew Point: 45°   Wind: 6mph
Humidity: 100%   Direction: 60°ENE
Pressure: 29.85"   Gusts: NA
Location:  52.87°N, 1.21°W
Report Text: EGNX 261250Z 06005KT 1300 R27/P1500 -RADZ BR BKN002 07/07 Q1011
Loading
Personal Weather Stations






























Interactive Weather Map New forecast layout! Learn more

10-Day Weather Forecast

Advertisements
Track Severe Weather on mobile